Time;durP1;ratioP1;P1;durP2;ratioP2;P2;SDS_P1;SDS_P2;PMS_P1;PMS_P2;Temp;Humidity;BMP_temperature;BMP_pressure;BME280_temperature;BME280_humidity;BME280_pressure;Samples;Min_cycle;Max_cycle;Signal;HPM_P1;HPM_P2
2022/11/28 00:01:21;;;;;;;10.00;8.30;;;;;;;3.83;87.31;95615.69;5032123;28;20221;-83
2022/11/28 00:03:47;;;;;;;9.10;7.87;;;;;;;3.85;86.44;95612.03;5032168;28;20233;-79
2022/11/28 00:06:14;;;;;;;10.63;9.07;;;;;;;3.93;86.40;95603.75;5030975;28;20202;-81
2022/11/28 00:08:41;;;;;;;8.77;7.83;;;;;;;3.92;86.51;95594.47;5031534;28;20205;-81
2022/11/28 00:11:10;;;;;;;9.50;8.50;;;;;;;3.92;86.04;95590.19;5031735;28;20203;-81
2022/11/28 00:13:37;;;;;;;9.47;8.33;;;;;;;3.85;86.30;95588.34;5031449;28;20697;-82
2022/11/28 00:16:06;;;;;;;9.97;8.63;;;;;;;3.68;86.38;95588.06;5032536;28;20205;-81
2022/11/28 00:18:33;;;;;;;11.07;8.63;;;;;;;3.68;86.90;95582.97;5031315;28;20631;-81
2022/11/28 00:21:00;;;;;;;9.40;8.40;;;;;;;3.66;86.79;95584.84;5031966;28;20194;-81
2022/11/28 00:23:27;;;;;;;9.50;8.50;;;;;;;3.68;86.66;95592.34;5031205;28;20245;-81
2022/11/28 00:25:57;;;;;;;10.43;9.20;;;;;;;3.65;86.74;95595.19;5031146;28;20210;-80
2022/11/28 00:28:23;;;;;;;9.33;8.33;;;;;;;3.77;86.07;95587.25;5031245;28;20715;-80
2022/11/28 00:30:50;;;;;;;9.17;8.20;;;;;;;3.88;85.70;95596.50;5031314;28;20209;-79
2022/11/28 00:33:18;;;;;;;9.77;8.73;;;;;;;3.91;85.50;95596.22;5031099;28;20222;-81
2022/11/28 00:35:44;;;;;;;9.30;8.17;;;;;;;4.04;84.94;95601.84;5031428;28;20661;-79
2022/11/28 00:38:11;;;;;;;10.53;8.47;;;;;;;4.15;84.09;95601.72;5031289;28;20206;-81
2022/11/28 00:40:37;;;;;;;9.20;8.20;;;;;;;4.22;83.67;95591.78;5030994;28;20215;-79
2022/11/28 00:43:04;;;;;;;9.37;8.40;;;;;;;4.19;83.17;95586.97;5030962;28;20221;-80
2022/11/28 00:45:30;;;;;;;10.33;8.10;;;;;;;4.09;83.15;95593.78;5031000;28;20225;-80
2022/11/28 00:47:56;;;;;;;9.33;8.23;;;;;;;3.99;83.62;95582.84;5030333;28;20203;-79
2022/11/28 00:50:25;;;;;;;9.97;8.80;;;;;;;3.94;84.47;95579.88;5030715;28;20197;-81
2022/11/28 00:52:51;;;;;;;9.57;8.23;;;;;;;3.85;84.75;95573.84;5039259;28;20210;-80
2022/11/28 00:55:18;;;;;;;9.40;8.40;;;;;;;3.90;85.09;95568.34;5031112;28;20205;-81
2022/11/28 00:57:44;;;;;;;9.00;8.10;;;;;;;4.00;84.75;95567.41;5038809;28;20205;-80
2022/11/28 01:00:11;;;;;;;9.53;8.43;;;;;;;3.96;84.70;95555.06;5030964;28;20225;-80
2022/11/28 01:02:38;;;;;;;9.37;8.37;;;;;;;3.97;84.41;95554.13;5029896;28;20238;-81
2022/11/28 01:05:05;;;;;;;9.23;8.17;;;;;;;3.92;84.36;95548.66;5030258;28;20202;-79
2022/11/28 01:07:34;;;;;;;9.53;8.20;;;;;;;3.79;85.05;95546.41;5030647;28;20577;-82
2022/11/28 01:10:00;;;;;;;10.27;8.83;;;;;;;3.67;85.98;95550.00;5030546;28;20198;-81
2022/11/28 01:12:27;;;;;;;10.27;9.07;;;;;;;3.60;86.39;95536.22;5028858;28;20221;-80
2022/11/28 01:14:54;;;;;;;9.77;8.77;;;;;;;3.59;86.30;95545.59;5030460;28;20579;-80
2022/11/28 01:17:21;;;;;;;9.37;8.13;;;;;;;3.71;86.59;95546.25;5030335;28;20198;-80
2022/11/28 01:19:47;;;;;;;11.40;9.30;;;;;;;3.63;86.49;95548.69;5029860;28;20218;-81
2022/11/28 01:22:14;;;;;;;9.90;8.67;;;;;;;3.62;86.25;95547.06;5030695;28;20214;-80
2022/11/28 01:24:41;;;;;;;10.23;8.93;;;;;;;3.64;86.38;95546.00;5030171;28;20201;-82
2022/11/28 01:27:08;;;;;;;10.07;8.43;;;;;;;3.68;86.50;95546.53;5030275;28;20201;-81
2022/11/28 01:29:35;;;;;;;11.23;9.00;;;;;;;3.72;86.07;95538.47;5029894;28;20210;-81
2022/11/28 01:32:01;;;;;;;9.67;8.67;;;;;;;3.81;85.48;95547.88;5030056;28;20201;-81
2022/11/28 01:34:27;;;;;;;10.07;8.73;;;;;;;3.91;84.98;95547.84;5030523;28;20194;-80
2022/11/28 01:36:54;;;;;;;10.13;8.43;;;;;;;3.91;84.64;95542.75;5030681;28;20194;-81
2022/11/28 01:39:20;;;;;;;9.43;8.13;;;;;;;3.95;84.36;95541.53;5029721;28;20589;-83
2022/11/28 01:41:48;;;;;;;9.63;8.60;;;;;;;3.90;84.10;95532.69;5030142;28;20198;-81
2022/11/28 01:44:52;;;;;;;9.60;8.53;;;;;;;3.84;84.27;95528.97;5031070;28;20201;-81
2022/11/28 01:47:23;;;;;;;10.90;8.80;;;;;;;3.75;84.84;95520.41;5030152;28;20205;-80
2022/11/28 01:49:50;;;;;;;9.77;8.50;;;;;;;3.72;85.58;95513.03;5029724;28;20201;-81
2022/11/28 01:52:21;;;;;;;9.87;8.60;;;;;;;3.62;85.64;95509.69;5029812;28;20723;-80
2022/11/28 01:54:51;;;;;;;9.70;8.63;;;;;;;3.53;86.74;95499.50;5030580;28;20198;-81
2022/11/28 01:57:22;;;;;;;9.93;8.43;;;;;;;3.52;87.32;95521.63;5029433;28;20206;-81
2022/11/28 01:59:57;;;;;;;10.30;8.53;;;;;;;3.69;86.36;95543.03;5029545;28;20198;-81
2022/11/28 02:02:29;;;;;;;10.23;8.47;;;;;;;3.84;85.62;95574.00;5029331;28;20233;-81
2022/11/28 02:04:56;;;;;;;9.73;8.50;;;;;;;3.95;84.77;95554.28;5029583;28;20190;-79
2022/11/28 02:07:23;;;;;;;9.87;8.50;;;;;;;4.03;84.01;95556.97;5029102;28;20205;-80
2022/11/28 02:09:50;;;;;;;9.83;8.57;;;;;;;4.05;83.94;95564.44;5030099;28;20195;-81
2022/11/28 02:12:30;;;;;;;10.80;8.97;;;;;;;4.10;83.84;95552.09;5028835;28;20228;-81
2022/11/28 02:15:14;;;;;;;9.57;8.57;;;;;;;4.08;83.88;95547.13;5021376;28;20213;-80
2022/11/28 02:17:51;;;;;;;9.63;8.07;;;;;;;4.09;84.05;95537.75;5029220;28;20216;-80
2022/11/28 02:20:50;;;;;;;10.60;8.87;;;;;;;4.06;84.43;95532.91;5029012;28;20225;-81
2022/11/28 02:23:23;;;;;;;9.63;8.47;;;;;;;4.19;83.65;95533.44;5024514;28;20579;-82
2022/11/28 02:26:21;;;;;;;9.57;8.47;;;;;;;4.29;82.90;95524.00;5029260;28;20204;-80
2022/11/28 02:29:32;;;;;;;10.30;8.73;;;;;;;4.16;83.11;95521.78;5029491;28;20198;-81
2022/11/28 02:32:15;;;;;;;9.47;8.37;;;;;;;4.02;84.27;95509.50;5024928;28;20201;-80
2022/11/28 02:34:50;;;;;;;9.60;8.60;;;;;;;4.02;84.21;95517.13;5029672;28;20197;-81
2022/11/28 02:37:26;;;;;;;9.33;8.27;;;;;;;4.15;83.97;95515.06;5029264;28;20186;-80
2022/11/28 02:40:06;;;;;;;10.70;9.20;;;;;;;4.23;83.51;95511.84;5028735;28;20206;-81
2022/11/28 02:42:42;;;;;;;8.97;7.90;;;;;;;4.26;82.72;95500.56;5022812;28;20216;-80
2022/11/28 02:45:13;;;;;;;9.33;8.33;;;;;;;4.21;82.98;95497.63;5029502;28;20193;-79
2022/11/28 02:47:45;;;;;;;9.53;8.47;;;;;;;4.19;83.23;95486.78;5028855;28;20198;-79
2022/11/28 02:50:17;;;;;;;10.60;8.80;;;;;;;4.14;83.94;95489.75;5029656;28;20187;-81
2022/11/28 02:52:47;;;;;;;10.20;8.80;;;;;;;4.16;83.79;95488.66;5031387;28;20221;-81
2022/11/28 02:55:15;;;;;;;9.03;8.13;;;;;;;4.22;83.22;95479.66;5029423;28;20209;-80
2022/11/28 02:57:46;;;;;;;9.47;8.47;;;;;;;4.15;83.45;95479.41;5028925;28;20213;-81
2022/11/28 03:00:28;;;;;;;10.97;8.87;;;;;;;4.09;84.15;95472.31;5029425;28;20221;-80
2022/11/28 03:03:10;;;;;;;11.27;8.83;;;;;;;4.06;84.41;95481.97;5029263;28;20218;-82
2022/11/28 03:05:46;;;;;;;9.80;8.67;;;;;;;4.16;84.09;95475.94;5021926;28;20190;-81
2022/11/28 03:08:30;;;;;;;10.87;9.00;;;;;;;4.25;83.45;95478.56;5029670;28;20202;-81
2022/11/28 03:11:07;;;;;;;10.97;8.60;;;;;;;4.33;83.53;95488.88;5029797;28;20183;-81
2022/11/28 03:13:40;;;;;;;9.13;8.13;;;;;;;4.14;83.81;95485.44;5028744;28;20213;-81
2022/11/28 03:16:18;;;;;;;9.57;8.57;;;;;;;4.21;83.15;95488.25;5027384;28;20566;-81
2022/11/28 03:18:55;;;;;;;11.37;8.80;;;;;;;4.21;83.15;95480.59;5024527;28;20194;-79
2022/11/28 03:21:32;;;;;;;9.90;8.10;;;;;;;4.25;83.11;95468.38;5030619;28;20195;-81
2022/11/28 03:24:02;;;;;;;9.57;8.43;;;;;;;4.19;82.81;95474.84;5049368;28;20220;-81
2022/11/28 03:26:36;;;;;;;9.67;8.07;;;;;;;4.06;83.38;95459.84;5039970;28;20668;-81
2022/11/28 03:29:09;;;;;;;10.33;9.20;;;;;;;4.07;83.60;95466.56;5028882;28;20201;-81
2022/11/28 03:31:39;;;;;;;9.73;8.67;;;;;;;4.02;83.64;95453.47;5029386;28;20205;-81
2022/11/28 03:34:10;;;;;;;10.10;8.57;;;;;;;4.03;83.90;95456.81;5029139;28;20214;-81
2022/11/28 03:36:41;;;;;;;9.47;8.07;;;;;;;4.08;83.82;95464.81;5032926;28;20210;-81
2022/11/28 03:39:11;;;;;;;9.80;8.60;;;;;;;4.02;83.44;95450.91;5024004;28;20565;-81
2022/11/28 03:41:42;;;;;;;11.10;9.27;;;;;;;3.84;84.43;95442.38;5032394;28;20198;-82
2022/11/28 03:44:14;;;;;;;9.70;8.50;;;;;;;3.95;84.36;95439.66;5032121;28;20306;-80
2022/11/28 03:46:45;;;;;;;11.17;8.77;;;;;;;4.01;84.15;95444.22;5032387;28;20191;-79
2022/11/28 03:49:17;;;;;;;9.27;8.33;;;;;;;4.10;83.75;95440.00;5032026;28;20206;-79
2022/11/28 03:51:47;;;;;;;10.67;9.23;;;;;;;4.09;83.22;95433.31;5047549;28;20213;-81
2022/11/28 03:54:17;;;;;;;10.53;8.73;;;;;;;4.04;83.71;95426.06;5040191;28;20226;-81
2022/11/28 03:56:51;;;;;;;12.10;8.67;;;;;;;4.08;84.02;95418.97;5032360;28;20669;-81
2022/11/28 03:59:23;;;;;;;9.10;8.20;;;;;;;4.03;83.90;95418.59;5031615;28;20210;-81
2022/11/28 04:01:58;;;;;;;11.37;9.77;;;;;;;4.04;84.45;95423.53;5032313;28;20187;-81
2022/11/28 04:04:31;;;;;;;9.77;8.77;;;;;;;4.08;84.08;95424.84;5032000;28;20228;-80
2022/11/28 04:07:04;;;;;;;11.10;8.83;;;;;;;4.10;83.70;95417.88;5031680;28;20190;-80
2022/11/28 04:09:39;;;;;;;11.07;9.47;;;;;;;4.04;84.20;95420.97;5031093;28;20201;-81
2022/11/28 04:12:14;;;;;;;11.37;9.40;;;;;;;3.96;84.25;95415.81;5030981;28;20197;-81
2022/11/28 04:14:46;;;;;;;11.50;9.30;;;;;;;3.78;85.55;95409.84;5031550;28;20186;-81
2022/11/28 04:17:19;;;;;;;10.67;9.00;;;;;;;3.74;86.05;95409.31;5031381;28;20731;-81
2022/11/28 04:19:51;;;;;;;10.33;8.53;;;;;;;3.68;86.45;95403.94;5031622;28;20217;-80
2022/11/28 04:22:22;;;;;;;10.60;8.83;;;;;;;3.69;86.67;95406.38;5032001;28;20222;-82
2022/11/28 04:24:53;;;;;;;11.30;9.27;;;;;;;3.73;86.40;95404.34;5032552;28;20201;-81
2022/11/28 04:27:23;;;;;;;11.83;9.57;;;;;;;3.73;85.80;95412.00;5032696;28;20183;-80
2022/11/28 04:29:54;;;;;;;10.87;8.83;;;;;;;3.67;86.28;95397.25;5031703;28;20194;-79
2022/11/28 04:32:22;;;;;;;10.63;8.80;;;;;;;3.66;86.28;95409.19;5034849;28;20218;-81
2022/11/28 04:34:56;;;;;;;11.47;8.93;;;;;;;3.62;85.96;95399.44;5031373;28;20206;-81
2022/11/28 04:37:26;;;;;;;12.77;9.40;;;;;;;3.62;86.53;95407.88;5031647;28;20194;-82
2022/11/28 04:39:55;;;;;;;10.27;8.53;;;;;;;3.59;85.94;95420.88;5031185;28;20229;-81
2022/11/28 04:42:26;;;;;;;11.67;8.97;;;;;;;3.50;87.08;95415.78;5023278;28;20241;-80
2022/11/28 04:44:57;;;;;;;11.73;9.77;;;;;;;3.42;87.60;95409.66;5031397;28;20204;-80
2022/11/28 04:47:25;;;;;;;12.00;9.10;;;;;;;3.41;87.68;95400.41;5030787;28;20205;-82
2022/11/28 04:49:55;;;;;;;10.63;9.03;;;;;;;3.29;88.70;95413.41;5029100;28;20206;-80
2022/11/28 04:52:29;;;;;;;11.20;9.10;;;;;;;3.45;88.09;95406.03;5031150;28;20221;-80
2022/11/28 04:55:01;;;;;;;11.13;9.27;;;;;;;3.61;87.24;95391.00;5030828;28;20186;-82
2022/11/28 04:57:32;;;;;;;9.53;8.37;;;;;;;3.61;87.20;95393.53;5031189;28;20195;-81
2022/11/28 05:00:04;;;;;;;10.30;8.77;;;;;;;3.54;87.54;95381.50;5023875;28;20218;-82
2022/11/28 05:02:31;;;;;;;11.40;9.20;;;;;;;3.41;88.60;95353.81;5031253;28;20299;-82
2022/11/28 05:05:00;;;;;;;13.03;9.77;;;;;;;3.40;88.43;95357.28;5031318;28;20198;-82
2022/11/28 05:07:26;;;;;;;9.97;8.73;;;;;;;3.56;88.05;95418.59;5030650;28;20198;-83
2022/11/28 05:09:54;;;;;;;10.07;8.47;;;;;;;3.66;87.66;95449.91;5031020;28;20206;-80
2022/11/28 05:12:20;;;;;;;10.30;8.60;;;;;;;3.68;87.59;95430.22;5031086;28;20282;-81
2022/11/28 05:14:47;;;;;;;9.70;8.70;;;;;;;3.81;87.08;95453.66;5031285;28;20198;-82
2022/11/28 05:17:13;;;;;;;10.33;9.00;;;;;;;3.88;86.22;95446.25;5031210;28;20198;-82
2022/11/28 05:19:40;;;;;;;9.97;8.63;;;;;;;3.92;86.65;95455.22;5030379;28;20218;-81
2022/11/28 05:22:08;;;;;;;10.23;8.83;;;;;;;3.95;85.61;95454.13;5031541;28;20191;-79
2022/11/28 05:24:35;;;;;;;11.77;9.33;;;;;;;3.85;86.69;95443.97;5030964;28;20205;-82
2022/11/28 05:27:03;;;;;;;10.47;9.03;;;;;;;3.90;86.53;95451.19;5031208;28;20201;-81
2022/11/28 05:29:30;;;;;;;12.63;9.27;;;;;;;3.86;87.38;95445.56;5030074;28;20206;-80
2022/11/28 05:31:57;;;;;;;11.93;9.40;;;;;;;3.92;87.09;95465.41;5031063;28;20196;-81
2022/11/28 05:34:23;;;;;;;11.70;8.90;;;;;;;3.98;86.83;95443.69;5031005;28;20206;-81
2022/11/28 05:36:50;;;;;;;11.63;9.60;;;;;;;3.99;86.73;95458.03;5031579;28;20202;-80
2022/11/28 05:39:18;;;;;;;10.80;9.27;;;;;;;4.08;85.83;95454.63;5031089;28;20220;-81
2022/11/28 05:41:44;;;;;;;10.07;8.53;;;;;;;3.96;86.89;95448.91;5030620;28;20218;-82
2022/11/28 05:44:11;;;;;;;11.40;9.83;;;;;;;4.02;86.68;95442.47;5031195;28;20230;-82
2022/11/28 05:46:37;;;;;;;11.83;9.07;;;;;;;4.05;86.16;95450.59;5030868;28;20218;-83
2022/11/28 05:49:03;;;;;;;11.20;9.50;;;;;;;4.12;85.98;95433.81;5025555;28;20219;-80
2022/11/28 05:51:30;;;;;;;12.33;10.00;;;;;;;4.15;85.47;95453.94;5011749;28;20207;-81
2022/11/28 05:53:56;;;;;;;11.87;9.77;;;;;;;4.04;86.35;95420.19;5011361;28;20230;-81
2022/11/28 05:56:24;;;;;;;11.70;9.80;;;;;;;3.90;86.82;95413.81;5011389;28;20206;-80
2022/11/28 05:58:52;;;;;;;11.00;9.80;;;;;;;3.92;86.85;95421.31;5011340;28;20199;-83
2022/11/28 06:01:21;;;;;;;12.47;10.63;;;;;;;3.98;86.89;95402.94;5018318;28;20222;-81
2022/11/28 06:03:48;;;;;;;12.73;10.40;;;;;;;4.08;86.46;95418.97;5031482;28;20222;-83
2022/11/28 06:06:16;;;;;;;11.90;10.60;;;;;;;4.09;86.02;95398.44;5030603;28;20208;-81
2022/11/28 06:08:44;;;;;;;11.63;10.17;;;;;;;3.93;86.47;95388.06;5030456;28;20681;-83
2022/11/28 06:11:10;;;;;;;11.43;10.17;;;;;;;4.02;86.36;95412.69;5033933;28;20744;-83
2022/11/28 06:13:38;;;;;;;11.63;10.00;;;;;;;4.02;86.07;95394.88;5031118;28;20250;-80
2022/11/28 06:16:07;;;;;;;12.70;10.57;;;;;;;3.85;86.96;95384.63;5031113;28;20206;-80
2022/11/28 06:18:34;;;;;;;12.63;10.60;;;;;;;3.81;87.57;95409.56;5030886;28;20224;-81
2022/11/28 06:21:01;;;;;;;12.93;10.77;;;;;;;3.89;87.53;95398.66;5031130;28;20222;-84
2022/11/28 06:23:28;;;;;;;12.17;10.07;;;;;;;3.72;88.46;95379.84;5031436;28;20218;-81
2022/11/28 06:25:54;;;;;;;13.30;10.57;;;;;;;3.70;88.62;95395.25;5031474;28;20557;-83
2022/11/28 06:28:21;;;;;;;12.60;10.70;;;;;;;3.73;88.30;95404.34;5030821;28;20225;-80
2022/11/28 06:30:49;;;;;;;11.80;9.73;;;;;;;3.76;88.41;95388.78;5030168;28;20202;-82
2022/11/28 06:33:15;;;;;;;12.53;10.30;;;;;;;3.72;88.43;95377.28;5030213;28;20221;-83
2022/11/28 06:35:42;;;;;;;14.50;10.40;;;;;;;3.80;88.28;95390.13;5031068;28;20214;-83
2022/11/28 06:38:08;;;;;;;21.63;11.90;;;;;;;3.75;94.57;95382.09;5030931;28;20222;-81
2022/11/28 06:40:34;;;;;;;14.60;9.80;;;;;;;3.83;90.32;95389.84;5031246;28;20233;-83
2022/11/28 06:43:01;;;;;;;12.80;10.17;;;;;;;3.72;88.67;95373.00;5031656;28;20229;-81
2022/11/28 06:45:27;;;;;;;11.67;9.83;;;;;;;3.59;89.07;95369.97;5030874;28;20198;-84
2022/11/28 06:47:55;;;;;;;11.07;9.70;;;;;;;3.58;89.15;95385.38;5030972;28;20205;-80
2022/11/28 06:50:21;;;;;;;10.50;8.70;;;;;;;3.70;88.62;95386.81;5031031;28;20205;-81
2022/11/28 06:52:48;;;;;;;12.47;10.30;;;;;;;3.75;88.09;95375.25;5030130;28;20225;-82
2022/11/28 06:55:16;;;;;;;10.87;9.67;;;;;;;3.68;88.50;95378.50;5030390;28;20202;-80
2022/11/28 06:57:43;;;;;;;11.93;9.57;;;;;;;3.68;88.49;95384.38;5029881;28;20847;-80
2022/11/28 07:00:10;;;;;;;10.90;9.63;;;;;;;3.75;87.87;95392.28;5029294;28;20217;-81
2022/11/28 07:02:38;;;;;;;12.40;8.87;;;;;;;3.80;87.50;95393.47;5029587;28;20229;-81
2022/11/28 07:05:07;;;;;;;12.87;9.47;;;;;;;3.81;88.14;95371.38;5029845;28;20198;-82
2022/11/28 07:07:33;;;;;;;10.83;9.27;;;;;;;3.78;87.95;95369.09;5029455;28;20573;-81
2022/11/28 07:10:00;;;;;;;11.00;9.33;;;;;;;3.85;87.95;95384.63;5031741;28;20206;-82
2022/11/28 07:12:26;;;;;;;11.67;9.50;;;;;;;3.90;87.68;95393.44;5033456;28;20226;-81
2022/11/28 07:14:53;;;;;;;13.13;9.43;;;;;;;3.95;87.44;95373.44;5033587;28;20293;-81
2022/11/28 07:17:19;;;;;;;11.97;9.27;;;;;;;3.91;87.94;95373.84;5034797;28;20217;-81
2022/11/28 07:19:46;;;;;;;10.50;9.10;;;;;;;3.96;87.89;95380.13;5033323;28;20197;-80
2022/11/28 07:22:13;;;;;;;11.13;9.60;;;;;;;4.10;87.13;95384.75;5034085;28;20229;-81
2022/11/28 07:24:40;;;;;;;11.80;8.93;;;;;;;4.25;87.63;95394.47;5035141;28;20203;-80
2022/11/28 07:27:06;;;;;;;13.73;11.07;;;;;;;4.36;86.43;95412.94;5034799;28;20233;-80
2022/11/28 07:29:35;;;;;;;21.73;17.10;;;;;;;4.48;85.54;95418.63;5034070;28;20217;-81
2022/11/28 07:32:02;;;;;;;14.60;11.40;;;;;;;4.46;85.32;95400.91;5033961;28;20198;-81
2022/11/28 07:34:28;;;;;;;12.63;10.23;;;;;;;4.44;85.16;95392.63;5033917;28;20202;-79
2022/11/28 07:36:55;;;;;;;11.60;9.67;;;;;;;4.50;85.04;95391.25;5034542;28;20205;-81
2022/11/28 07:39:25;;;;;;;11.67;9.23;;;;;;;4.44;85.24;95384.97;5034815;28;20214;-81
2022/11/28 07:41:51;;;;;;;10.37;9.03;;;;;;;4.53;84.81;95388.41;5034238;28;20743;-80
2022/11/28 07:44:18;;;;;;;11.57;9.83;;;;;;;4.45;85.39;95375.56;5033529;28;20317;-80
2022/11/28 07:46:46;;;;;;;11.40;10.20;;;;;;;4.40;85.25;95381.13;5034062;28;20210;-80
2022/11/28 07:49:13;;;;;;;10.93;9.30;;;;;;;4.28;85.63;95376.34;5033426;28;20202;-81
2022/11/28 07:51:41;;;;;;;10.93;9.80;;;;;;;4.30;85.95;95371.91;5034024;28;20198;-80
2022/11/28 07:54:08;;;;;;;11.43;9.83;;;;;;;4.38;85.40;95370.28;5033661;28;20214;-81
2022/11/28 07:56:38;;;;;;;12.70;10.07;;;;;;;4.46;85.12;95377.19;5033452;28;20289;-80
2022/11/28 07:59:06;;;;;;;10.70;9.57;;;;;;;4.57;85.10;95377.00;5033024;28;20209;-80
2022/11/28 08:01:35;;;;;;;12.63;9.60;;;;;;;4.63;84.10;95365.38;5033649;28;20225;-81
2022/11/28 08:04:03;;;;;;;11.97;9.80;;;;;;;4.61;83.77;95359.66;5033812;28;20226;-81
2022/11/28 08:06:30;;;;;;;15.03;12.73;;;;;;;4.63;84.39;95365.38;5033206;28;20199;-80
2022/11/28 08:08:59;;;;;;;12.53;11.20;;;;;;;4.71;83.70;95361.19;5033365;28;20209;-80
2022/11/28 08:11:29;;;;;;;11.03;9.60;;;;;;;4.76;82.74;95364.09;5032870;28;20198;-80
2022/11/28 08:13:57;;;;;;;10.13;8.87;;;;;;;4.81;82.62;95367.00;5032867;28;20877;-81
2022/11/28 08:16:25;;;;;;;12.83;9.03;;;;;;;4.79;81.96;95363.00;5032531;28;20202;-81
2022/11/28 08:18:52;;;;;;;13.90;8.97;;;;;;;4.84;82.39;95383.75;5032487;28;20202;-79
2022/11/28 08:21:22;;;;;;;10.37;8.87;;;;;;;4.88;82.21;95379.16;5032735;28;20224;-81
2022/11/28 08:23:50;;;;;;;12.03;9.20;;;;;;;4.91;82.23;95383.97;5033091;28;20226;-81
2022/11/28 08:26:18;;;;;;;12.43;9.43;;;;;;;4.95;82.44;95377.66;5032961;28;20666;-81
2022/11/28 08:28:45;;;;;;;14.90;9.17;;;;;;;4.92;82.67;95367.72;5033008;28;20206;-81
2022/11/28 08:31:14;;;;;;;10.27;8.83;;;;;;;4.96;82.02;95374.16;5032531;28;20210;-81
2022/11/28 08:33:41;;;;;;;11.70;9.30;;;;;;;4.96;81.36;95371.59;5033165;28;20221;-80
2022/11/28 08:36:10;;;;;;;10.43;8.60;;;;;;;4.89;82.41;95358.63;5033009;28;20305;-82
2022/11/28 08:38:37;;;;;;;10.53;9.40;;;;;;;4.85;82.87;95357.31;5033015;28;20206;-82
2022/11/28 08:41:06;;;;;;;10.57;8.83;;;;;;;4.79;82.41;95363.81;5033515;28;20226;-82
2022/11/28 08:43:35;;;;;;;11.80;9.03;;;;;;;4.78;82.95;95364.75;5033438;28;20218;-81
2022/11/28 08:46:02;;;;;;;11.80;9.27;;;;;;;4.88;82.57;95366.41;5032585;28;20268;-81
2022/11/28 08:48:33;;;;;;;11.10;8.50;;;;;;;4.95;82.21;95375.09;5032946;28;20202;-81
2022/11/28 08:51:00;;;;;;;12.30;9.13;;;;;;;4.97;82.21;95373.19;5033087;28;20190;-80
2022/11/28 08:53:26;;;;;;;11.33;8.80;;;;;;;4.95;82.66;95367.44;5032854;28;20233;-81
2022/11/28 08:55:53;;;;;;;10.17;9.07;;;;;;;4.97;82.83;95374.00;5032451;28;20701;-80
2022/11/28 08:58:19;;;;;;;11.00;9.33;;;;;;;5.07;82.49;95386.66;5031995;28;20675;-81
2022/11/28 09:00:46;;;;;;;10.07;8.73;;;;;;;5.17;82.60;95382.28;5032577;28;20264;-80
2022/11/28 09:03:14;;;;;;;11.00;9.03;;;;;;;5.20;81.76;95376.88;5031595;28;20230;-82
2022/11/28 09:05:44;;;;;;;11.17;9.60;;;;;;;5.18;82.20;95376.25;5032213;28;20206;-82
2022/11/28 09:08:10;;;;;;;51.57;37.77;;;;;;;5.16;82.79;95384.03;5032287;28;20198;-81
2022/11/28 09:10:38;;;;;;;25.70;20.47;;;;;;;5.24;82.26;95385.84;5031769;28;20252;-81
2022/11/28 09:13:07;;;;;;;18.97;15.17;;;;;;;5.33;81.42;95386.72;5031067;28;20741;-82
2022/11/28 09:15:34;;;;;;;17.10;14.20;;;;;;;5.42;81.32;95373.84;5032179;28;20206;-81
2022/11/28 09:18:00;;;;;;;14.17;10.43;;;;;;;5.51;80.93;95375.50;5031760;28;20755;-81
2022/11/28 09:20:27;;;;;;;12.30;9.60;;;;;;;5.54;80.51;95379.50;5032059;28;20202;-81
2022/11/28 09:22:54;;;;;;;9.73;8.00;;;;;;;5.46;79.29;95384.56;5032492;28;20222;-80
2022/11/28 09:25:21;;;;;;;9.33;8.23;;;;;;;5.48;80.55;95395.41;5031800;28;20198;-81
2022/11/28 09:27:47;;;;;;;9.60;8.57;;;;;;;5.55;80.47;95389.56;5031262;28;20206;-80
2022/11/28 09:30:14;;;;;;;10.77;8.63;;;;;;;5.58;80.55;95387.69;5033018;28;20220;-80
2022/11/28 09:32:41;;;;;;;10.60;9.17;;;;;;;5.64;80.10;95385.31;5031614;28;20222;-80
2022/11/28 09:35:08;;;;;;;11.33;9.17;;;;;;;5.63;80.61;95385.44;5032263;28;20682;-81
2022/11/28 09:37:34;;;;;;;12.93;9.10;;;;;;;5.60;80.31;95385.75;5032132;28;20207;-81
2022/11/28 09:40:02;;;;;;;9.23;8.23;;;;;;;5.67;79.41;95386.75;5032055;28;20198;-80
2022/11/28 09:42:35;;;;;;;10.97;8.43;;;;;;;5.65;78.73;95384.34;5032175;28;20249;-79
2022/11/28 09:45:05;;;;;;;10.37;8.57;;;;;;;5.61;78.48;95387.34;5032093;28;20187;-81
2022/11/28 09:47:35;;;;;;;10.17;8.87;;;;;;;5.65;80.14;95383.53;5031628;28;20198;-82
2022/11/28 09:50:09;;;;;;;11.00;7.90;;;;;;;5.72;79.11;95380.25;5027517;28;20647;-81
2022/11/28 09:52:43;;;;;;;10.17;7.93;;;;;;;5.73;78.17;95374.19;5030692;28;20224;-81
2022/11/28 09:55:21;;;;;;;9.80;8.50;;;;;;;5.68;77.76;95370.47;5031367;28;20206;-81
2022/11/28 09:57:49;;;;;;;8.70;7.80;;;;;;;5.80;78.29;95370.06;5031037;28;20209;-81
2022/11/28 10:00:17;;;;;;;8.63;7.73;;;;;;;5.87;78.26;95376.16;5031723;28;20882;-82
2022/11/28 10:02:59;;;;;;;11.00;8.13;;;;;;;5.86;77.93;95381.44;5031269;28;20226;-80
2022/11/28 10:05:32;;;;;;;10.30;8.63;;;;;;;5.92;78.47;95369.84;5031596;28;20199;-82
2022/11/28 10:08:14;;;;;;;12.70;8.83;;;;;;;6.01;78.09;95369.72;5030824;28;20653;-81
2022/11/28 10:10:52;;;;;;;11.13;9.07;;;;;;;6.09;77.91;95372.31;5031647;28;20640;-82
2022/11/28 10:13:26;;;;;;;11.00;8.63;;;;;;;6.13;78.01;95365.94;5030548;28;20225;-81
2022/11/28 10:16:00;;;;;;;12.87;9.23;;;;;;;6.17;77.75;95362.09;5031018;28;20198;-80
2022/11/28 10:18:39;;;;;;;15.63;12.57;;;;;;;6.23;77.46;95360.69;5030518;28;20197;-82
2022/11/28 10:21:18;;;;;;;16.00;13.03;;;;;;;6.31;77.43;95359.91;5031301;28;20201;-80
2022/11/28 10:23:46;;;;;;;13.10;10.43;;;;;;;6.31;76.87;95365.84;5030388;28;20228;-81
2022/11/28 10:26:18;;;;;;;13.90;10.03;;;;;;;6.33;76.97;95360.56;5031224;28;20213;-81
2022/11/28 10:28:49;;;;;;;9.67;8.33;;;;;;;6.37;76.78;95367.75;5030930;28;20256;-80
2022/11/28 10:31:20;;;;;;;8.60;7.57;;;;;;;6.38;76.30;95371.09;5030929;28;20796;-82
2022/11/28 10:33:53;;;;;;;10.37;8.00;;;;;;;6.36;76.32;95368.69;5030911;28;20222;-81
2022/11/28 10:36:26;;;;;;;9.07;7.93;;;;;;;6.36;76.13;95368.69;5031426;28;20191;-80
2022/11/28 10:38:52;;;;;;;10.50;7.67;;;;;;;6.40;76.39;95364.88;5030496;28;20810;-81
2022/11/28 10:41:25;;;;;;;10.00;8.27;;;;;;;6.45;76.94;95362.66;5031294;28;20225;-81
2022/11/28 10:43:58;;;;;;;13.60;8.23;;;;;;;6.46;77.13;95358.34;5031082;28;20221;-82
2022/11/28 10:46:43;;;;;;;10.53;8.07;;;;;;;6.49;77.41;95355.50;5035327;28;20194;-82
2022/11/28 10:49:24;;;;;;;8.73;7.67;;;;;;;6.55;76.78;95358.19;5034735;28;20229;-80
2022/11/28 10:52:00;;;;;;;11.00;8.57;;;;;;;6.56;76.33;95352.13;5034777;28;20201;-81
2022/11/28 10:54:44;;;;;;;9.93;7.83;;;;;;;6.59;76.42;95353.56;5034719;28;20232;-82
2022/11/28 10:57:17;;;;;;;12.07;7.93;;;;;;;6.68;76.40;95354.41;5035300;28;20186;-83
2022/11/28 10:59:57;;;;;;;25.03;20.27;;;;;;;6.71;76.08;95346.41;5034611;28;20244;-81
2022/11/28 11:02:33;;;;;;;16.20;11.90;;;;;;;6.76;76.20;95355.19;5034982;28;20225;-80
2022/11/28 11:05:00;;;;;;;17.17;12.53;;;;;;;6.79;76.36;95346.41;5034354;28;20196;-82
2022/11/28 11:07:29;;;;;;;10.00;8.97;;;;;;;6.76;76.42;95346.72;5034621;28;20228;-82
2022/11/28 11:09:57;;;;;;;13.13;9.70;;;;;;;6.81;76.23;95350.41;5034780;28;20202;-84
2022/11/28 11:12:30;;;;;;;9.20;8.23;;;;;;;6.86;76.19;95348.19;5034310;28;20228;-82
2022/11/28 11:14:57;;;;;;;10.73;8.07;;;;;;;6.87;76.26;95356.66;5034238;28;20205;-81
2022/11/28 11:17:25;;;;;;;18.77;15.27;;;;;;;6.91;76.08;95353.63;5034167;28;20214;-80
2022/11/28 11:19:52;;;;;;;13.27;9.67;;;;;;;6.95;75.50;95359.19;5033408;28;20222;-80
2022/11/28 11:22:21;;;;;;;11.23;8.00;;;;;;;7.01;75.27;95350.09;5034331;28;20225;-82
2022/11/28 11:25:05;;;;;;;8.97;7.80;;;;;;;7.06;74.48;95348.66;5034265;28;20216;-80
2022/11/28 11:27:36;;;;;;;11.60;7.63;;;;;;;7.07;74.34;95359.69;5034824;28;20634;-82
2022/11/28 11:30:16;;;;;;;10.60;7.93;;;;;;;7.10;74.69;95354.28;5034086;28;20217;-82
2022/11/28 11:32:47;;;;;;;8.93;7.27;;;;;;;7.10;74.59;95354.28;5034385;28;20217;-81
2022/11/28 11:35:20;;;;;;;12.27;7.70;;;;;;;7.14;74.60;95351.19;5034897;28;20193;-80
2022/11/28 11:37:46;;;;;;;10.83;7.70;;;;;;;7.17;75.13;95350.88;5034829;28;20685;-81
2022/11/28 11:40:24;;;;;;;9.07;7.30;;;;;;;7.20;75.16;95352.34;5034167;28;20198;-81
2022/11/28 11:42:55;;;;;;;11.87;7.47;;;;;;;7.17;74.78;95342.41;5033887;28;20217;-79
2022/11/28 11:45:28;;;;;;;11.43;7.83;;;;;;;7.20;75.63;95342.88;5034245;28;20194;-82
2022/11/28 11:47:55;;;;;;;9.03;7.97;;;;;;;7.21;75.49;95341.13;5014400;28;20203;-82